createdAt,value
2019-03-29T02:06:49.702Z,99500.39
2019-03-29T02:38:31.917Z,99489.44
2019-03-29T03:57:33.775Z,99525.31
2019-03-29T04:09:49.556Z,99537.10
2019-03-29T04:42:41.691Z,99392.71
2019-03-29T05:08:58.388Z,99567.47
2019-03-29T05:34:35.288Z,99594.87
2019-03-29T05:40:50.158Z,99601.80
2019-03-29T05:47:00.580Z,99589.81
2019-03-29T05:53:00.529Z,99602.02
2019-03-29T06:05:41.251Z,99578.89
2019-03-29T06:18:18.646Z,99568.87
2019-03-29T06:24:47.714Z,99570.45
2019-03-29T06:50:49.718Z,99532.32
2019-03-29T06:56:16.653Z,99542.63
2019-03-29T07:01:54.127Z,99531.90
2019-03-29T07:07:25.117Z,99538.92
2019-03-29T07:13:10.095Z,99531.23
2019-03-29T07:18:53.290Z,99543.39
2019-03-29T07:24:36.901Z,99546.08
2019-03-29T07:36:35.728Z,99535.66
2019-03-29T07:42:06.897Z,99537.09
2019-03-29T07:47:29.823Z,99549.45
2019-03-29T07:53:17.273Z,99544.91
2019-03-29T08:12:49.295Z,99536.34
2019-03-29T08:19:11.199Z,99525.27
2019-03-29T08:31:10.876Z,99513.43
2019-03-29T08:36:56.113Z,99519.86
2019-03-29T08:42:41.011Z,99505.01
2019-03-29T08:48:27.213Z,99497.66
2019-03-29T09:12:58.185Z,99486.46
2019-03-29T09:18:25.660Z,99496.46
2019-03-29T09:24:21.937Z,99485.42
2019-03-29T09:29:39.836Z,99484.95
2019-03-29T09:35:09.563Z,99461.55
2019-03-29T09:40:58.865Z,99461.71
2019-03-29T09:46:19.997Z,99452.41
2019-03-29T09:51:56.150Z,99488.59
2019-03-29T09:57:36.724Z,99482.75
2019-03-29T10:02:50.816Z,99488.05
2019-03-29T10:08:17.774Z,99484.17
2019-03-29T10:13:41.889Z,99475.92
2019-03-29T10:19:04.888Z,99457.42
2019-03-29T10:24:47.458Z,99457.09
2019-03-29T10:30:26.242Z,99465.48
2019-03-29T10:35:56.782Z,99466.87
2019-03-29T10:41:25.731Z,99485.92
2019-03-29T10:46:48.579Z,99457.31
2019-03-29T10:52:16.737Z,99451.44
2019-03-29T10:57:52.174Z,99442.38
2019-03-29T11:03:28.680Z,99432.46
2019-03-29T11:15:16.712Z,99406.14
2019-03-29T11:20:44.342Z,99407.51
2019-03-29T11:33:04.303Z,99405.55
2019-03-29T11:39:05.050Z,99381.90
2019-03-29T11:44:51.626Z,99394.48
2019-03-29T11:51:19.144Z,99375.16
2019-03-29T11:56:58.180Z,99389.23
2019-03-29T12:02:31.503Z,99369.62
2019-03-29T12:08:16.216Z,99360.71
2019-03-29T12:19:58.853Z,99353.76
2019-03-29T12:25:42.214Z,99351.95
2019-03-29T12:31:06.669Z,99353.57
2019-03-29T12:36:53.367Z,99335.95
2019-03-29T12:43:31.383Z,99332.63
2019-03-29T12:49:41.397Z,99330.68
2019-03-29T12:55:25.156Z,99320.75
2019-03-29T13:00:52.606Z,99335.53
2019-03-29T13:06:23.229Z,99329.44
2019-03-29T13:12:35.652Z,99333.02
2019-03-29T13:18:20.709Z,99302.91
2019-03-29T13:24:01.478Z,99323.36
2019-03-29T13:29:29.046Z,99323.45
2019-03-29T13:35:05.370Z,99323.95
2019-03-29T13:40:52.926Z,99321.81
2019-03-29T13:46:18.514Z,99290.67
2019-03-29T13:52:08.245Z,99295.90
2019-03-29T13:58:10.403Z,99266.07
2019-03-29T14:03:57.216Z,99277.39
2019-03-29T14:15:52.011Z,99253.64
2019-03-29T14:21:23.488Z,99267.34
2019-03-29T14:26:54.835Z,99277.58
2019-03-29T14:32:42.500Z,99264.61
2019-03-29T14:38:16.075Z,99262.97
2019-03-29T14:44:52.451Z,99286.80
2019-03-29T14:50:24.795Z,99274.86
2019-03-29T14:55:54.176Z,99252.45
2019-03-29T15:01:19.355Z,99285.16
2019-03-29T15:06:42.553Z,99259.33
2019-03-29T15:12:08.249Z,99291.06
2019-03-29T15:17:33.694Z,99286.53
2019-03-29T15:22:58.172Z,99292.98
2019-03-29T15:28:24.940Z,99294.44
2019-03-29T15:33:50.707Z,99293.19
2019-03-29T15:39:13.178Z,99308.94
2019-03-29T15:45:21.276Z,99300.48
2019-03-29T15:50:50.339Z,99303.09
2019-03-29T15:56:30.401Z,99296.73
2019-03-29T16:02:13.364Z,99306.51
2019-03-29T16:07:35.768Z,99318.78
2019-03-29T16:13:36.896Z,99295.47
2019-03-29T16:19:08.009Z,99311.03
2019-03-29T16:24:44.265Z,99307.37
2019-03-29T16:30:09.812Z,99297.19
2019-03-29T16:35:37.323Z,99300.39
2019-03-29T16:40:59.226Z,99304.62
2019-03-29T16:46:23.663Z,99298.67
2019-03-29T16:52:02.526Z,99292.36
2019-03-29T16:57:26.028Z,99308.25
2019-03-29T17:02:50.188Z,99296.16
2019-03-29T17:08:14.181Z,99293.80
2019-03-29T17:13:37.440Z,99303.66
2019-03-29T17:19:01.016Z,99297.45
2019-03-29T17:24:30.978Z,99304.62
2019-03-29T17:29:56.180Z,99315.66
2019-03-29T17:35:24.104Z,99314.05
2019-03-29T17:41:47.152Z,99313.23
2019-03-29T17:59:35.596Z,99328.54
2019-03-29T18:04:59.025Z,99347.36
2019-03-29T18:10:30.214Z,99347.86
2019-03-29T18:15:55.906Z,99364.45
2019-03-29T18:21:26.567Z,99362.00
2019-03-29T18:26:53.320Z,99378.14
2019-03-29T18:32:24.023Z,99357.95
2019-03-29T18:38:06.913Z,99358.52
2019-03-29T18:43:37.598Z,99364.16
2019-03-29T18:49:02.321Z,99369.97
2019-03-29T18:55:31.223Z,99388.41
2019-03-29T19:53:27.921Z,99414.30
2019-03-29T20:46:30.215Z,99435.75
